createdAt,value
2023-04-07T00:01:06.820Z,20.95
2023-04-07T00:03:33.720Z,22.30
2023-04-07T00:06:00.236Z,20.38
2023-04-07T00:08:27.067Z,21.15
2023-04-07T00:10:53.412Z,18.83
2023-04-07T00:13:19.737Z,21.42
2023-04-07T00:15:46.195Z,18.98
2023-04-07T00:18:12.600Z,20.38
2023-04-07T00:20:38.971Z,22.90
2023-04-07T00:23:05.307Z,20.02
2023-04-07T00:25:31.678Z,23.83
2023-04-07T00:27:57.991Z,22.00
2023-04-07T00:30:24.375Z,26.40
2023-04-07T00:32:51.634Z,21.92
2023-04-07T00:35:18.213Z,22.83
2023-04-07T00:37:44.555Z,23.13
2023-04-07T00:40:11.362Z,21.85
2023-04-07T00:42:37.722Z,21.02
2023-04-07T00:45:04.616Z,20.15
2023-04-07T00:47:31.841Z,19.60
2023-04-07T00:49:58.261Z,22.25
2023-04-07T00:52:28.865Z,23.42
2023-04-07T00:54:55.842Z,22.63
2023-04-07T00:57:22.903Z,21.52
2023-04-07T00:59:52.840Z,20.00
2023-04-07T01:02:28.836Z,20.27
2023-04-07T01:05:07.559Z,20.42
2023-04-07T01:07:57.073Z,22.20
2023-04-07T01:11:05.345Z,21.83
2023-04-07T01:13:36.141Z,20.55
2023-04-07T01:16:32.412Z,19.52
2023-04-07T01:19:12.720Z,21.50
2023-04-07T01:21:43.067Z,21.10
2023-04-07T01:24:33.476Z,17.48
2023-04-07T01:27:13.972Z,20.70
2023-04-07T01:29:47.723Z,18.25
2023-04-07T01:32:15.663Z,17.70
2023-04-07T01:34:43.429Z,16.38
2023-04-07T01:37:11.248Z,19.73
2023-04-07T01:39:38.556Z,16.83
2023-04-07T01:42:06.693Z,16.05
2023-04-07T01:44:34.152Z,20.25
2023-04-07T01:47:02.207Z,17.85
2023-04-07T01:49:30.759Z,20.88
2023-04-07T01:51:58.087Z,21.45
2023-04-07T01:54:25.806Z,19.90
2023-04-07T01:56:52.885Z,21.90
2023-04-07T01:59:19.317Z,19.40
2023-04-07T02:01:46.481Z,20.65
2023-04-07T02:04:22.021Z,21.20
2023-04-07T02:06:53.062Z,22.58
2023-04-07T02:09:27.213Z,24.63
2023-04-07T02:11:57.920Z,19.48
2023-04-07T02:14:25.552Z,20.02
2023-04-07T02:17:03.984Z,25.17
2023-04-07T02:19:30.566Z,29.67
2023-04-07T02:21:57.768Z,27.92
2023-04-07T02:24:24.197Z,37.40
2023-04-07T02:26:50.574Z,33.05
2023-04-07T02:29:17.503Z,35.70
2023-04-07T02:31:44.038Z,35.25
2023-04-07T02:34:10.525Z,31.77
2023-04-07T02:36:38.902Z,33.47
2023-04-07T02:39:06.740Z,35.22
2023-04-07T02:41:33.175Z,29.70
2023-04-07T02:43:59.783Z,30.55
2023-04-07T02:46:26.249Z,29.23
2023-04-07T02:48:52.678Z,30.13
2023-04-07T02:51:19.097Z,28.00
2023-04-07T02:53:45.515Z,27.98
2023-04-07T02:56:12.054Z,29.48
2023-04-07T02:58:38.680Z,28.85
2023-04-07T03:01:05.406Z,34.67
2023-04-07T03:03:34.027Z,35.50
2023-04-07T03:06:14.832Z,35.75
2023-04-07T03:08:58.692Z,32.40
2023-04-07T03:11:25.178Z,33.60
2023-04-07T03:13:52.275Z,30.42
2023-04-07T03:16:18.932Z,32.03
2023-04-07T03:18:58.168Z,31.88
2023-04-07T03:21:25.728Z,32.80
2023-04-07T03:23:52.777Z,29.80
2023-04-07T03:26:19.559Z,27.85
2023-04-07T03:28:46.083Z,25.85
2023-04-07T03:31:13.638Z,25.65
2023-04-07T03:33:40.082Z,27.50
2023-04-07T03:36:08.310Z,27.15
2023-04-07T03:38:35.313Z,29.38
2023-04-07T03:41:04.113Z,27.73
2023-04-07T03:43:30.553Z,26.65
2023-04-07T03:45:57.118Z,25.40
2023-04-07T03:48:24.530Z,28.80
2023-04-07T03:51:02.710Z,27.30
2023-04-07T03:53:30.685Z,28.20
2023-04-07T03:55:58.238Z,25.65
2023-04-07T03:58:46.469Z,26.92
2023-04-07T04:01:19.136Z,23.50
2023-04-07T04:03:49.566Z,23.40
2023-04-07T04:06:22.038Z,27.77
2023-04-07T04:08:49.513Z,24.80
2023-04-07T04:11:16.131Z,24.17
2023-04-07T04:13:50.749Z,25.25
2023-04-07T04:16:17.290Z,23.48
2023-04-07T04:18:44.617Z,26.25
2023-04-07T04:21:13.596Z,25.10
2023-04-07T04:23:42.575Z,25.83
2023-04-07T04:26:08.979Z,26.23
2023-04-07T04:28:38.026Z,25.83
2023-04-07T04:31:07.609Z,26.35
2023-04-07T04:33:39.203Z,25.73
2023-04-07T04:36:06.027Z,25.35
2023-04-07T04:38:33.213Z,26.60
2023-04-07T04:41:20.329Z,26.08
2023-04-07T04:43:48.552Z,28.50
2023-04-07T04:46:20.226Z,24.13
2023-04-07T04:48:47.386Z,28.38
2023-04-07T04:51:16.480Z,26.20
2023-04-07T04:53:45.864Z,29.05
2023-04-07T04:56:12.388Z,29.85
2023-04-07T04:58:46.024Z,28.42
2023-04-07T05:01:18.043Z,30.05
2023-04-07T05:03:52.897Z,31.08
2023-04-07T05:06:27.534Z,30.10
2023-04-07T05:08:57.034Z,31.58
2023-04-07T05:11:27.237Z,28.30
2023-04-07T05:13:55.982Z,31.65
2023-04-07T05:16:23.794Z,29.08
2023-04-07T05:18:50.855Z,30.70
2023-04-07T05:21:20.084Z,24.60
2023-04-07T05:23:46.558Z,30.58
2023-04-07T05:26:13.543Z,30.25
2023-04-07T05:28:40.805Z,31.00
2023-04-07T05:31:14.353Z,32.90
2023-04-07T05:33:40.900Z,28.15
2023-04-07T05:36:07.781Z,27.35
2023-04-07T05:38:34.935Z,30.33
2023-04-07T05:41:08.565Z,26.75
2023-04-07T05:43:36.468Z,32.40
2023-04-07T05:46:03.166Z,31.23
2023-04-07T05:48:30.586Z,30.00
2023-04-07T05:50:57.044Z,30.52
2023-04-07T05:53:23.590Z,27.40
2023-04-07T05:55:50.266Z,28.83
2023-04-07T05:58:39.689Z,29.30
2023-04-07T06:01:06.255Z,30.05
2023-04-07T06:03:32.959Z,28.52
2023-04-07T06:06:18.943Z,27.02
2023-04-07T06:08:46.056Z,28.42
2023-04-07T06:11:12.624Z,27.33
2023-04-07T06:13:39.048Z,29.73
2023-04-07T06:16:06.440Z,28.35
2023-04-07T06:18:32.951Z,25.83
2023-04-07T06:20:59.443Z,26.95
2023-04-07T06:23:25.892Z,30.48
2023-04-07T06:25:53.175Z,30.02
2023-04-07T06:28:19.746Z,29.30
2023-04-07T06:30:47.086Z,25.88
2023-04-07T06:33:14.816Z,29.42
2023-04-07T06:35:41.356Z,28.10
2023-04-07T06:38:08.099Z,27.33
2023-04-07T06:40:34.457Z,25.73
2023-04-07T06:43:00.885Z,25.40
2023-04-07T06:45:36.187Z,25.80
2023-04-07T06:48:02.630Z,25.80
2023-04-07T06:50:29.045Z,29.20
2023-04-07T06:52:55.480Z,24.00
2023-04-07T06:55:21.885Z,26.80
2023-04-07T06:57:48.341Z,25.60
2023-04-07T07:00:15.175Z,27.25
2023-04-07T07:02:41.656Z,27.48
2023-04-07T07:05:08.256Z,24.42
2023-04-07T07:07:34.732Z,26.27
2023-04-07T07:10:01.284Z,25.00
2023-04-07T07:12:27.710Z,27.30
2023-04-07T07:14:54.293Z,25.23
2023-04-07T07:17:20.773Z,24.02
2023-04-07T07:19:47.300Z,28.02
2023-04-07T07:22:13.744Z,29.33
2023-04-07T07:24:40.251Z,25.98
2023-04-07T07:27:06.660Z,30.55
2023-04-07T07:29:33.069Z,27.20
2023-04-07T07:31:59.471Z,27.65
2023-04-07T07:34:25.818Z,31.42
2023-04-07T07:36:52.189Z,30.85
2023-04-07T07:39:18.533Z,31.35
2023-04-07T07:41:45.220Z,27.92
2023-04-07T07:44:11.606Z,29.65
2023-04-07T07:46:37.988Z,28.85
2023-04-07T07:49:05.707Z,31.48
2023-04-07T07:51:32.117Z,27.73
2023-04-07T07:53:58.553Z,30.27
2023-04-07T07:56:24.986Z,30.65
2023-04-07T07:58:51.592Z,30.30
2023-04-07T08:01:17.964Z,30.52
2023-04-07T08:03:44.456Z,30.60
2023-04-07T08:06:11.775Z,29.65
2023-04-07T08:08:38.240Z,31.63
2023-04-07T08:11:04.651Z,31.45
2023-04-07T08:13:31.159Z,34.53
2023-04-07T08:15:57.687Z,30.23
2023-04-07T08:18:25.217Z,29.17
2023-04-07T08:20:51.624Z,29.30
2023-04-07T08:23:18.022Z,35.58
2023-04-07T08:25:44.462Z,31.58
2023-04-07T08:28:11.615Z,28.75
2023-04-07T08:30:38.093Z,32.63
2023-04-07T08:33:06.033Z,29.90
2023-04-07T08:35:32.584Z,27.98
2023-04-07T08:37:59.055Z,27.30
2023-04-07T08:40:25.731Z,29.63
2023-04-07T08:42:52.600Z,27.60
2023-04-07T08:45:19.394Z,29.70
2023-04-07T08:47:48.106Z,30.08
2023-04-07T08:50:17.961Z,30.23
2023-04-07T08:52:46.531Z,28.30
2023-04-07T08:55:13.409Z,29.63
2023-04-07T08:57:41.021Z,28.42
2023-04-07T09:00:08.136Z,27.65
2023-04-07T09:02:36.574Z,28.90
2023-04-07T09:05:05.163Z,29.38
2023-04-07T09:07:33.474Z,26.20
2023-04-07T09:10:00.156Z,29.67
2023-04-07T09:12:28.020Z,31.83
2023-04-07T09:14:55.200Z,31.13
2023-04-07T09:17:22.175Z,30.92
2023-04-07T09:19:48.899Z,27.77
2023-04-07T09:22:15.350Z,29.75
2023-04-07T09:24:42.271Z,32.05
2023-04-07T09:27:16.073Z,30.23
2023-04-07T09:29:44.744Z,27.38
2023-04-07T09:32:11.387Z,30.45
2023-04-07T09:34:41.195Z,127.80
2023-04-07T09:37:09.453Z,26.83
2023-04-07T09:39:50.569Z,21.73
2023-04-07T09:42:17.045Z,21.67
2023-04-07T09:44:44.161Z,24.45
2023-04-07T09:47:11.137Z,23.98
2023-04-07T09:49:54.612Z,23.08
2023-04-07T09:52:47.076Z,25.23
2023-04-07T09:55:14.488Z,23.50
2023-04-07T09:57:42.065Z,21.85
2023-04-07T10:00:10.277Z,20.20
2023-04-07T10:02:39.585Z,24.40
2023-04-07T10:05:06.766Z,23.08
2023-04-07T10:07:33.197Z,22.45
2023-04-07T10:09:59.589Z,21.02
2023-04-07T10:12:27.199Z,23.25
2023-04-07T10:14:55.236Z,23.98
2023-04-07T10:17:22.556Z,22.95
2023-04-07T10:19:50.827Z,21.48
2023-04-07T10:22:18.582Z,22.40
2023-04-07T10:24:56.299Z,25.17
2023-04-07T10:27:31.634Z,21.77
2023-04-07T10:30:00.182Z,23.75
2023-04-07T10:32:26.922Z,19.95
2023-04-07T10:34:54.373Z,22.58
2023-04-07T10:37:22.452Z,19.20
2023-04-07T10:39:51.180Z,22.00
2023-04-07T10:42:39.169Z,23.40
2023-04-07T10:45:06.257Z,19.67
2023-04-07T10:47:32.827Z,21.70
2023-04-07T10:50:22.337Z,21.88
2023-04-07T10:52:50.207Z,22.38
2023-04-07T10:55:29.858Z,24.38
2023-04-07T10:58:25.203Z,22.80
2023-04-07T11:01:01.129Z,21.60
2023-04-07T11:03:30.205Z,19.50
2023-04-07T11:06:08.398Z,21.75
2023-04-07T11:08:42.649Z,19.95
2023-04-07T11:11:11.489Z,23.75
2023-04-07T11:13:42.391Z,22.85
2023-04-07T11:16:09.434Z,18.33
2023-04-07T11:18:37.358Z,18.38
2023-04-07T11:21:08.034Z,19.65
2023-04-07T11:23:42.550Z,19.50
2023-04-07T11:26:11.449Z,18.60
2023-04-07T11:28:54.152Z,18.10
2023-04-07T11:31:29.093Z,20.05
2023-04-07T11:34:05.497Z,15.48
2023-04-07T11:36:34.241Z,16.05
2023-04-07T11:39:02.230Z,14.82
2023-04-07T11:41:31.275Z,16.48
2023-04-07T11:44:08.239Z,15.60
2023-04-07T11:46:35.338Z,17.60
2023-04-07T11:49:13.497Z,13.77
2023-04-07T11:51:40.831Z,15.65
2023-04-07T11:54:07.291Z,12.68
2023-04-07T11:56:47.680Z,14.35
2023-04-07T11:59:25.069Z,11.85
2023-04-07T12:01:55.349Z,11.20
2023-04-07T12:04:23.654Z,8.82
2023-04-07T12:06:50.280Z,8.55
2023-04-07T12:09:37.986Z,12.40
2023-04-07T12:12:07.117Z,12.10
2023-04-07T12:14:34.276Z,12.30
2023-04-07T12:17:03.287Z,11.32
2023-04-07T12:19:33.580Z,10.93
2023-04-07T12:22:00.597Z,11.57
2023-04-07T12:24:27.175Z,14.43
2023-04-07T12:26:53.682Z,15.20
2023-04-07T12:29:20.260Z,14.43
2023-04-07T12:31:49.429Z,14.07
2023-04-07T12:34:17.109Z,13.05
2023-04-07T12:36:44.520Z,14.32
2023-04-07T12:39:11.133Z,12.45
2023-04-07T12:41:38.784Z,12.88
2023-04-07T12:44:05.923Z,12.40
2023-04-07T12:46:32.572Z,12.30
2023-04-07T12:48:59.177Z,12.80
2023-04-07T12:51:26.193Z,12.55
2023-04-07T12:53:54.043Z,11.25
2023-04-07T12:56:22.257Z,11.32
2023-04-07T12:58:48.657Z,10.48
2023-04-07T13:01:15.182Z,10.57
2023-04-07T13:03:41.726Z,9.35
2023-04-07T13:06:08.225Z,9.65
2023-04-07T13:08:34.724Z,9.98
2023-04-07T13:11:01.283Z,11.30
2023-04-07T13:13:27.880Z,9.52
2023-04-07T13:15:54.516Z,8.77
2023-04-07T13:18:21.704Z,8.60
2023-04-07T13:21:03.591Z,8.13
2023-04-07T13:23:42.894Z,9.93
2023-04-07T13:26:10.053Z,8.18
2023-04-07T13:28:36.450Z,8.57
2023-04-07T13:31:03.018Z,8.35
2023-04-07T13:33:29.460Z,7.82
2023-04-07T13:35:55.931Z,7.65
2023-04-07T13:38:22.313Z,7.88
2023-04-07T13:40:49.529Z,8.10
2023-04-07T13:43:17.735Z,7.05
2023-04-07T13:45:44.272Z,7.13
2023-04-07T13:48:10.755Z,6.18
2023-04-07T13:50:37.412Z,8.35
2023-04-07T13:53:03.762Z,7.45
2023-04-07T13:55:30.380Z,6.78
2023-04-07T13:57:56.820Z,6.07
2023-04-07T14:00:23.238Z,8.10
2023-04-07T14:02:50.134Z,7.57
2023-04-07T14:05:16.695Z,5.75
2023-04-07T14:07:43.087Z,7.75
2023-04-07T14:10:10.776Z,7.68
2023-04-07T14:12:37.351Z,6.88
2023-04-07T14:15:04.332Z,7.13
2023-04-07T14:17:30.853Z,6.35
2023-04-07T14:19:57.288Z,6.10
2023-04-07T14:22:23.729Z,4.93
2023-04-07T14:24:50.144Z,6.32
2023-04-07T14:27:20.735Z,5.97
2023-04-07T14:29:48.231Z,5.85
2023-04-07T14:32:15.695Z,5.82
2023-04-07T14:34:42.143Z,5.88
2023-04-07T14:37:08.614Z,5.53
2023-04-07T14:39:35.456Z,5.82
2023-04-07T14:42:01.870Z,4.95
2023-04-07T14:44:29.038Z,6.20
2023-04-07T14:46:55.458Z,5.50
2023-04-07T14:49:22.246Z,5.25
2023-04-07T14:51:48.739Z,4.30
2023-04-07T14:54:15.130Z,3.80
2023-04-07T14:56:41.620Z,4.20
2023-04-07T14:59:08.040Z,4.07
2023-04-07T15:01:34.523Z,4.57
2023-04-07T15:04:01.215Z,4.65
2023-04-07T15:06:28.126Z,4.20
2023-04-07T15:08:54.583Z,4.30
2023-04-07T15:11:21.656Z,3.83
2023-04-07T15:13:48.613Z,3.40
2023-04-07T15:16:16.036Z,3.58
2023-04-07T15:18:44.624Z,3.25
2023-04-07T15:21:12.286Z,3.80
2023-04-07T15:23:39.236Z,3.78
2023-04-07T15:26:06.330Z,4.03
2023-04-07T15:28:32.832Z,4.90
2023-04-07T15:31:00.749Z,5.30
2023-04-07T15:33:27.814Z,5.03
2023-04-07T15:35:54.200Z,4.18
2023-04-07T15:38:20.612Z,3.50
2023-04-07T15:40:47.009Z,3.85
2023-04-07T15:43:13.401Z,4.10
2023-04-07T15:45:41.713Z,3.83
2023-04-07T15:48:08.696Z,4.88
2023-04-07T15:50:35.997Z,4.50
2023-04-07T15:53:04.650Z,5.35
2023-04-07T15:55:35.318Z,5.40
2023-04-07T15:58:03.450Z,6.57
2023-04-07T16:00:33.480Z,4.45
2023-04-07T16:03:02.121Z,4.90
2023-04-07T16:05:29.136Z,4.15
2023-04-07T16:07:55.657Z,4.18
2023-04-07T16:10:22.051Z,3.42
2023-04-07T16:12:48.548Z,3.78
2023-04-07T16:15:20.516Z,3.00
2023-04-07T16:17:52.549Z,3.05
2023-04-07T16:20:18.953Z,2.63
2023-04-07T16:22:47.998Z,3.63
2023-04-07T16:25:18.188Z,3.95
2023-04-07T16:27:45.379Z,2.70
2023-04-07T16:30:13.683Z,3.40
2023-04-07T16:32:43.493Z,3.72
2023-04-07T16:35:11.337Z,2.95
2023-04-07T16:37:38.174Z,3.72
2023-04-07T16:40:05.095Z,4.93
2023-04-07T16:42:31.730Z,3.95
2023-04-07T16:44:58.289Z,3.22
2023-04-07T16:47:26.167Z,3.45
2023-04-07T16:49:52.811Z,3.45
2023-04-07T16:52:20.659Z,3.45
2023-04-07T16:54:47.248Z,2.97
2023-04-07T16:57:13.761Z,2.45
2023-04-07T16:59:40.637Z,2.30
2023-04-07T17:02:12.441Z,1.70
2023-04-07T17:04:40.291Z,1.90
2023-04-07T17:07:07.125Z,2.33
2023-04-07T17:09:33.825Z,2.00
2023-04-07T17:12:01.520Z,2.10
2023-04-07T17:14:28.872Z,2.33
2023-04-07T17:16:55.953Z,2.30
2023-04-07T17:19:22.609Z,3.05
2023-04-07T17:21:49.324Z,3.22
2023-04-07T17:24:16.685Z,2.42
2023-04-07T17:26:44.192Z,4.85
2023-04-07T17:29:10.598Z,3.33
2023-04-07T17:31:37.008Z,3.20
2023-04-07T17:34:03.697Z,2.78
2023-04-07T17:36:34.077Z,2.38
2023-04-07T17:39:01.253Z,2.67
2023-04-07T17:41:28.402Z,2.42
2023-04-07T17:43:54.858Z,2.10
2023-04-07T17:46:22.876Z,2.15
2023-04-07T17:48:50.703Z,1.80
2023-04-07T17:51:17.653Z,2.00
2023-04-07T17:53:44.082Z,1.65
2023-04-07T17:56:10.677Z,1.83
2023-04-07T17:58:37.130Z,2.10
2023-04-07T18:01:04.151Z,2.75
2023-04-07T18:03:30.763Z,1.75
2023-04-07T18:05:57.277Z,6.22
2023-04-07T18:08:24.829Z,2.38
2023-04-07T18:10:51.473Z,2.35
2023-04-07T18:13:18.504Z,2.42
2023-04-07T18:15:45.102Z,2.85
2023-04-07T18:18:11.569Z,2.05
2023-04-07T18:20:37.948Z,2.10
2023-04-07T18:23:05.225Z,3.20
2023-04-07T18:25:31.596Z,4.22
2023-04-07T18:27:58.772Z,2.67
2023-04-07T18:30:25.147Z,3.15
2023-04-07T18:32:51.576Z,2.63
2023-04-07T18:35:18.028Z,2.10
2023-04-07T18:37:44.472Z,2.50
2023-04-07T18:40:11.483Z,2.50
2023-04-07T18:42:37.903Z,3.05
2023-04-07T18:45:04.619Z,2.30
2023-04-07T18:47:31.170Z,3.53
2023-04-07T18:49:58.130Z,3.22
2023-04-07T18:52:26.309Z,3.35
2023-04-07T18:54:52.805Z,3.60
2023-04-07T18:57:19.192Z,3.60
2023-04-07T18:59:45.825Z,3.53
2023-04-07T19:02:12.548Z,6.65
2023-04-07T19:04:39.101Z,5.60
2023-04-07T19:07:05.728Z,6.90
2023-04-07T19:09:33.065Z,7.85
2023-04-07T19:11:59.443Z,4.25
2023-04-07T19:14:25.925Z,3.97
2023-04-07T19:16:52.640Z,4.13
2023-04-07T19:19:19.181Z,4.55
2023-04-07T19:21:45.681Z,4.30
2023-04-07T19:24:12.044Z,3.70
2023-04-07T19:26:38.472Z,6.10
2023-04-07T19:29:04.942Z,7.60
2023-04-07T19:31:31.477Z,6.57
2023-04-07T19:33:58.473Z,6.45
2023-04-07T19:36:26.402Z,5.35
2023-04-07T19:38:52.932Z,5.93
2023-04-07T19:41:19.359Z,4.80
2023-04-07T19:43:45.783Z,15.93
2023-04-07T19:46:12.297Z,17.15
2023-04-07T19:48:39.934Z,17.88
2023-04-07T19:51:07.440Z,9.18
2023-04-07T19:53:34.096Z,9.52
2023-04-07T19:56:01.794Z,8.38
2023-04-07T19:58:28.183Z,8.85
2023-04-07T20:00:55.020Z,8.10
2023-04-07T20:03:22.026Z,10.15
2023-04-07T20:05:49.486Z,9.38
2023-04-07T20:08:16.338Z,12.93
2023-04-07T20:10:42.702Z,11.63
2023-04-07T20:13:09.556Z,16.48
2023-04-07T20:15:36.147Z,14.15
2023-04-07T20:18:03.477Z,11.15
2023-04-07T20:20:29.899Z,11.40
2023-04-07T20:22:56.310Z,11.10
2023-04-07T20:25:22.807Z,10.35
2023-04-07T20:27:49.969Z,11.00
2023-04-07T20:30:16.731Z,11.57
2023-04-07T20:32:43.784Z,11.75
2023-04-07T20:35:11.890Z,9.88
2023-04-07T20:37:38.406Z,8.50
2023-04-07T20:40:06.092Z,8.05
2023-04-07T20:42:32.577Z,7.40
2023-04-07T20:45:03.465Z,7.20
2023-04-07T20:47:31.197Z,7.28
2023-04-07T20:49:58.592Z,6.47
2023-04-07T20:52:26.606Z,6.05
2023-04-07T20:54:53.050Z,5.82
2023-04-07T20:57:19.461Z,5.80
2023-04-07T20:59:45.984Z,5.05
2023-04-07T21:02:12.587Z,4.63
2023-04-07T21:04:39.213Z,4.18
2023-04-07T21:07:05.728Z,6.63
2023-04-07T21:09:32.160Z,4.45
2023-04-07T21:11:58.679Z,4.80
2023-04-07T21:14:25.312Z,4.28
2023-04-07T21:16:51.934Z,4.68
2023-04-07T21:19:18.290Z,3.65
2023-04-07T21:21:44.699Z,4.53
2023-04-07T21:24:11.117Z,3.60
2023-04-07T21:26:37.463Z,3.50
2023-04-07T21:29:03.822Z,3.95
2023-04-07T21:31:30.240Z,4.00
2023-04-07T21:33:56.636Z,3.92
2023-04-07T21:36:23.014Z,4.78
2023-04-07T21:38:50.889Z,4.00
2023-04-07T21:41:17.824Z,5.47
2023-04-07T21:43:44.242Z,5.57
2023-04-07T21:46:10.680Z,4.38
2023-04-07T21:48:37.093Z,4.53
2023-04-07T21:51:03.709Z,4.93
2023-04-07T21:53:30.321Z,4.43
2023-04-07T21:55:56.774Z,4.43
2023-04-07T21:58:23.464Z,4.90
2023-04-07T22:00:49.970Z,4.78
2023-04-07T22:03:16.700Z,4.70
2023-04-07T22:05:43.341Z,5.82
2023-04-07T22:08:09.702Z,5.32
2023-04-07T22:10:36.335Z,5.00
2023-04-07T22:13:03.135Z,5.20
2023-04-07T22:15:29.726Z,4.90
2023-04-07T22:17:57.666Z,5.78
2023-04-07T22:20:25.684Z,4.80
2023-04-07T22:22:53.959Z,4.55
2023-04-07T22:25:20.434Z,4.53
2023-04-07T22:27:46.825Z,5.03
2023-04-07T22:30:13.276Z,4.85
2023-04-07T22:32:41.278Z,4.85
2023-04-07T22:35:08.106Z,4.45
2023-04-07T22:37:34.515Z,4.97
2023-04-07T22:40:00.977Z,5.07
2023-04-07T22:42:27.343Z,8.77
2023-04-07T22:44:53.729Z,5.55
2023-04-07T22:47:20.687Z,5.35
2023-04-07T22:49:47.126Z,5.85
2023-04-07T22:52:13.545Z,4.60
2023-04-07T22:54:39.950Z,4.95
2023-04-07T22:57:06.308Z,4.78
2023-04-07T22:59:32.765Z,5.53
2023-04-07T23:01:59.348Z,4.97
2023-04-07T23:04:25.929Z,7.78
2023-04-07T23:06:53.023Z,5.85
2023-04-07T23:09:19.414Z,5.15
2023-04-07T23:11:47.185Z,4.63
2023-04-07T23:14:13.949Z,5.00
2023-04-07T23:16:40.670Z,5.07
2023-04-07T23:19:11.212Z,4.85
2023-04-07T23:21:39.522Z,5.90
2023-04-07T23:24:05.978Z,5.97
2023-04-07T23:26:32.574Z,5.10
2023-04-07T23:28:59.000Z,4.80
2023-04-07T23:31:25.509Z,5.20
2023-04-07T23:33:52.004Z,5.38
2023-04-07T23:36:18.439Z,5.60
2023-04-07T23:38:44.892Z,5.97
2023-04-07T23:41:11.269Z,4.63
2023-04-07T23:43:37.663Z,7.78
2023-04-07T23:46:04.114Z,4.30
2023-04-07T23:48:31.262Z,5.63
2023-04-07T23:50:59.812Z,6.35
2023-04-07T23:53:26.230Z,5.05
2023-04-07T23:55:52.676Z,4.70
2023-04-07T23:58:19.044Z,5.15
